createdAt,value
2022-11-19T00:00:03.184Z,1006.2
2022-11-19T00:15:02.614Z,1006.2
2022-11-19T00:30:07.929Z,1006.3
2022-11-19T00:45:02.514Z,1006.4
2022-11-19T01:00:03.005Z,1006.5
2022-11-19T01:15:02.373Z,1006.6
2022-11-19T01:30:02.992Z,1006.8
2022-11-19T01:45:02.183Z,1006.8
2022-11-19T02:00:02.565Z,1007.0
2022-11-19T02:15:03.030Z,1007.0
2022-11-19T02:30:02.353Z,1007.1
2022-11-19T02:45:02.781Z,1007.2
2022-11-19T03:00:03.159Z,1007.2
2022-11-19T03:15:02.546Z,1007.4
2022-11-19T03:30:03.027Z,1007.2
2022-11-19T03:45:02.374Z,1007.6
2022-11-19T04:00:03.040Z,1007.7
2022-11-19T04:15:02.259Z,1007.8
2022-11-19T04:30:02.733Z,1007.9
2022-11-19T04:45:03.196Z,1008.1
2022-11-19T05:00:02.648Z,1008.0
2022-11-19T05:15:03.079Z,1008.2
2022-11-19T05:30:02.464Z,1008.2
2022-11-19T05:45:03.069Z,1008.4
2022-11-19T06:00:02.393Z,1008.6
2022-11-19T06:15:02.819Z,1008.9
2022-11-19T06:30:02.264Z,1008.9
2022-11-19T06:45:02.712Z,1009.1
2022-11-19T07:00:03.155Z,1009.1
2022-11-19T07:15:04.540Z,1009.3
2022-11-19T07:30:02.097Z,1009.5
2022-11-19T07:45:02.453Z,1009.6
2022-11-19T08:00:03.095Z,1010.0
2022-11-19T08:15:02.352Z,1010.0
2022-11-19T08:30:02.790Z,1010.1
2022-11-19T08:45:03.191Z,1010.0
2022-11-19T09:00:06.232Z,1010.0
2022-11-19T09:15:03.129Z,1010.1
2022-11-19T09:30:02.508Z,1010.0
2022-11-19T09:45:03.129Z,1010.2
2022-11-19T10:00:02.361Z,1010.3
2022-11-19T10:15:02.836Z,1010.3
2022-11-19T10:30:02.259Z,1010.2
2022-11-19T10:45:02.689Z,1010.1
2022-11-19T11:00:03.148Z,1010.0
2022-11-19T11:15:02.600Z,1010.0
2022-11-19T11:30:03.144Z,1009.9
2022-11-19T11:45:02.473Z,1009.9
2022-11-19T12:00:03.113Z,1009.7
2022-11-19T12:15:02.374Z,1009.8
2022-11-19T12:30:02.795Z,1009.7
2022-11-19T12:45:03.198Z,1009.7
2022-11-19T13:00:02.663Z,1009.7
2022-11-19T13:15:03.176Z,1009.5
2022-11-19T13:30:02.527Z,1009.5
2022-11-19T13:45:03.174Z,1009.5
2022-11-19T14:00:02.395Z,1009.5
2022-11-19T14:15:02.841Z,1009.4
2022-11-19T14:30:02.277Z,1009.4
2022-11-19T14:45:02.713Z,1009.3
2022-11-19T15:00:03.173Z,1009.2
2022-11-19T15:15:02.594Z,1009.1
2022-11-19T15:30:03.256Z,1009.2
2022-11-19T15:45:02.430Z,1009.1
2022-11-19T16:00:02.970Z,1009.0
2022-11-19T16:15:02.343Z,1009.1
2022-11-19T16:30:02.804Z,1009.2
2022-11-19T16:45:03.216Z,1009.2
2022-11-19T17:00:02.689Z,1009.2
2022-11-19T17:15:03.211Z,1009.3
2022-11-19T17:30:02.566Z,1009.3
2022-11-19T17:45:09.216Z,1009.4
2022-11-19T18:00:03.430Z,1009.5
2022-11-19T18:15:02.875Z,1009.5
2022-11-19T18:30:02.296Z,1009.5
2022-11-19T18:45:02.730Z,1009.5
2022-11-19T19:00:03.235Z,1009.5
2022-11-19T19:15:02.600Z,1009.3
2022-11-19T19:30:03.248Z,1009.2
2022-11-19T19:45:02.471Z,1009.3
2022-11-19T20:00:02.910Z,1009.3
2022-11-19T20:15:02.335Z,1009.2
2022-11-19T20:30:03.532Z,1009.2
2022-11-19T20:45:03.262Z,1009.3
2022-11-19T21:00:02.628Z,1009.3
2022-11-19T21:15:03.283Z,1009.2
2022-11-19T21:30:02.518Z,1009.1
2022-11-19T21:45:02.964Z,1009.1
2022-11-19T22:00:02.386Z,1008.9
2022-11-19T22:15:02.852Z,1008.9
2022-11-19T22:30:05.852Z,1008.9
2022-11-19T22:45:02.729Z,1008.8
2022-11-19T23:00:03.304Z,1008.4
2022-11-19T23:30:03.038Z,1008.5
2022-11-19T23:45:02.452Z,1008.4
